Time;durP1;ratioP1;P1;durP2;ratioP2;P2;SDS_P1;SDS_P2;PMS_P1;PMS_P2;Temp;Humidity;BMP_temperature;BMP_pressure;BME280_temperature;BME280_humidity;BME280_pressure;Samples;Min_cycle;Max_cycle;Signal;HPM_P1;HPM_P2
2021/03/22 00:01:25;;;;;;;22.88;9.57;;;4.20;99.90;;;;;;4981067;28;20038;-73
2021/03/22 00:03:50;;;;;;;23.42;8.50;;;4.20;99.90;;;;;;4995143;28;20031;-72
2021/03/22 00:06:16;;;;;;;31.27;9.00;;;4.20;99.90;;;;;;4997897;28;20035;-72
2021/03/22 00:08:41;;;;;;;26.23;8.73;;;4.20;99.90;;;;;;4983619;28;20096;-73
2021/03/22 00:11:07;;;;;;;26.92;9.93;;;4.20;99.90;;;;;;4981940;28;20038;-72
2021/03/22 00:13:33;;;;;;;28.30;10.32;;;4.20;99.90;;;;;;4987459;28;20081;-72
2021/03/22 00:16:03;;;;;;;22.17;8.70;;;4.20;99.90;;;;;;4998488;28;20064;-74
2021/03/22 00:18:31;;;;;;;24.17;9.15;;;4.20;99.90;;;;;;4994097;28;20518;-72
2021/03/22 00:20:57;;;;;;;27.20;10.32;;;4.30;99.90;;;;;;4980212;28;20545;-74
2021/03/22 00:23:23;;;;;;;22.40;8.73;;;4.20;99.90;;;;;;4983315;28;20427;-74
2021/03/22 00:25:49;;;;;;;32.88;12.55;;;4.20;99.90;;;;;;4980765;28;20043;-73
2021/03/22 00:28:16;;;;;;;26.83;7.95;;;4.30;99.90;;;;;;4987742;28;20105;-72
2021/03/22 00:30:43;;;;;;;22.03;9.90;;;4.40;99.90;;;;;;4975495;28;20519;-72
2021/03/22 00:33:10;;;;;;;27.50;9.02;;;4.40;99.90;;;;;;4984348;28;20300;-74
2021/03/22 00:35:36;;;;;;;25.33;9.55;;;4.40;99.90;;;;;;4994260;28;20560;-73
2021/03/22 00:38:03;;;;;;;22.75;8.95;;;4.50;99.90;;;;;;4977073;28;20580;-74
2021/03/22 00:40:35;;;;;;;26.05;8.25;;;4.50;99.90;;;;;;4984718;28;20104;-72
2021/03/22 00:43:00;;;;;;;36.13;9.70;;;4.50;99.90;;;;;;4993854;28;20498;-71
2021/03/22 00:45:27;;;;;;;23.98;8.15;;;4.50;99.90;;;;;;4989933;28;20039;-72
2021/03/22 00:47:53;;;;;;;25.65;9.05;;;4.50;99.90;;;;;;4976381;28;20452;-74
2021/03/22 00:50:26;;;;;;;18.98;8.18;;;4.50;99.90;;;;;;4988928;28;20020;-72
2021/03/22 00:52:51;;;;;;;16.23;7.35;;;4.50;99.90;;;;;;5002513;28;20033;-72
2021/03/22 00:55:17;;;;;;;25.58;7.85;;;4.50;99.90;;;;;;4975907;28;20030;-73
2021/03/22 00:57:43;;;;;;;21.67;7.82;;;4.60;99.90;;;;;;4985676;28;20033;-73
2021/03/22 01:00:11;;;;;;;23.38;7.53;;;4.50;99.90;;;;;;4992460;28;20030;-73
2021/03/22 01:02:36;;;;;;;24.10;8.25;;;4.50;99.90;;;;;;4975122;28;20060;-72
2021/03/22 01:05:03;;;;;;;31.77;10.73;;;4.50;99.90;;;;;;4990183;28;20069;-72
2021/03/22 01:07:29;;;;;;;21.98;7.68;;;4.60;99.90;;;;;;4995972;28;20023;-72
2021/03/22 01:09:54;;;;;;;21.52;8.55;;;4.60;99.90;;;;;;5001689;28;20034;-71
2021/03/22 01:12:20;;;;;;;21.70;8.93;;;4.60;99.90;;;;;;4989625;28;20038;-73
2021/03/22 01:14:46;;;;;;;24.17;7.50;;;4.60;99.90;;;;;;4993357;28;20030;-71
2021/03/22 01:17:11;;;;;;;20.25;7.20;;;4.60;99.90;;;;;;4993009;28;20550;-74
2021/03/22 01:19:37;;;;;;;31.38;7.22;;;4.60;99.90;;;;;;4990658;28;20030;-71
2021/03/22 01:22:03;;;;;;;20.98;8.35;;;4.50;99.90;;;;;;4986148;28;20393;-71
2021/03/22 01:24:32;;;;;;;25.15;8.05;;;4.50;99.90;;;;;;4989142;28;20486;-72
2021/03/22 01:27:01;;;;;;;20.88;7.80;;;4.50;99.90;;;;;;4985641;28;20031;-71
2021/03/22 01:29:33;;;;;;;23.35;7.13;;;4.50;99.90;;;;;;4989901;28;20053;-72
2021/03/22 01:32:00;;;;;;;24.85;7.03;;;4.50;99.90;;;;;;4977851;28;20026;-72
2021/03/22 01:34:28;;;;;;;22.95;5.95;;;4.50;99.90;;;;;;5000761;23;20043;-72
2021/03/22 01:36:55;;;;;;;20.50;6.05;;;4.50;99.90;;;;;;4961680;28;20109;-73
2021/03/22 01:39:25;;;;;;;24.25;6.82;;;4.60;99.90;;;;;;4967713;28;20074;-73
2021/03/22 01:41:56;;;;;;;22.17;6.80;;;4.50;99.90;;;;;;4971924;28;20035;-72
2021/03/22 01:44:35;;;;;;;27.60;6.70;;;4.50;99.90;;;;;;4999496;28;20121;-72
2021/03/22 01:47:07;;;;;;;24.27;6.35;;;4.50;99.90;;;;;;4970650;28;20033;-72
2021/03/22 01:49:56;;;;;;;24.13;8.13;;;4.50;99.90;;;;;;4971284;28;20106;-74
2021/03/22 01:52:24;;;;;;;21.48;7.95;;;4.50;99.90;;;;;;4986786;28;20039;-72
2021/03/22 01:54:51;;;;;;;17.50;5.72;;;4.50;99.90;;;;;;4983865;28;20022;-72
2021/03/22 01:57:25;;;;;;;24.40;7.38;;;4.50;99.90;;;;;;4985292;28;20026;-73
2021/03/22 01:59:54;;;;;;;28.50;6.93;;;4.50;99.90;;;;;;4985938;28;20023;-73
2021/03/22 02:02:21;;;;;;;24.02;6.13;;;4.40;99.90;;;;;;4990331;28;20026;-73
2021/03/22 02:04:47;;;;;;;25.35;7.05;;;4.50;99.90;;;;;;4995626;28;20030;-73
2021/03/22 02:07:12;;;;;;;17.58;7.15;;;4.40;99.90;;;;;;4974942;28;20114;-72
2021/03/22 02:09:40;;;;;;;20.85;5.85;;;4.50;99.90;;;;;;4980383;28;20031;-72
2021/03/22 02:12:15;;;;;;;23.40;6.35;;;4.50;99.90;;;;;;4977992;28;20410;-73
2021/03/22 02:14:41;;;;;;;27.50;7.45;;;4.50;99.90;;;;;;4973583;28;20035;-72
2021/03/22 02:17:18;;;;;;;31.20;8.15;;;4.40;99.90;;;;;;4990937;28;20454;-72
2021/03/22 02:20:22;;;;;;;24.50;6.50;;;4.40;99.90;;;;;;4978469;28;20038;-72
2021/03/22 02:23:13;;;;;;;23.85;6.22;;;4.40;99.90;;;;;;4954021;28;20039;-72
2021/03/22 02:25:51;;;;;;;;;;;4.40;99.90;;;;;;4975814;28;20031;-72
2021/03/22 02:28:49;;;;;;;24.23;7.97;;;4.50;99.90;;;;;;4976877;28;19932;-72
2021/03/22 02:31:35;;;;;;;25.58;6.97;;;4.40;99.90;;;;;;4974729;28;20425;-73
2021/03/22 02:34:22;;;;;;;27.73;6.00;;;4.40;99.90;;;;;;4974102;28;20027;-72
2021/03/22 02:37:06;;;;;;;29.05;7.43;;;4.40;99.90;;;;;;4975150;28;20483;-74
2021/03/22 02:39:37;;;;;;;21.92;6.75;;;4.40;99.90;;;;;;4978113;28;20451;-72
2021/03/22 02:42:07;;;;;;;18.15;5.38;;;4.30;99.90;;;;;;4976914;28;20023;-73
2021/03/22 02:44:37;;;;;;;17.38;5.53;;;4.30;99.90;;;;;;4974641;28;20033;-73
2021/03/22 02:47:25;;;;;;;20.45;6.43;;;4.30;99.90;;;;;;4972896;28;20027;-73
2021/03/22 02:49:52;;;;;;;20.67;7.10;;;4.40;99.90;;;;;;4967722;28;20027;-71
2021/03/22 02:52:45;;;;;;;30.52;5.63;;;4.30;99.90;;;;;;4986330;28;20023;-71
2021/03/22 02:55:33;;;;;;;24.92;7.45;;;4.30;99.90;;;;;;4973324;28;20029;-73
2021/03/22 02:58:08;;;;;;;22.73;6.07;;;4.30;99.90;;;;;;4971942;28;20023;-72
2021/03/22 03:00:59;;;;;;;23.38;5.35;;;4.30;99.90;;;;;;4962720;28;20574;-71
2021/03/22 03:03:27;;;;;;;20.85;5.45;;;4.30;99.90;;;;;;4970831;28;20077;-71
2021/03/22 03:05:53;;;;;;;22.35;7.80;;;4.30;99.90;;;;;;4964893;28;20027;-73
2021/03/22 03:08:45;;;;;;;25.67;6.80;;;4.20;99.90;;;;;;4972992;28;20023;-72
2021/03/22 03:11:12;;;;;;;28.48;6.80;;;4.20;99.90;;;;;;4963248;28;20071;-72
2021/03/22 03:13:38;;;;;;;23.02;5.20;;;4.20;99.90;;;;;;4987126;28;20034;-72
2021/03/22 03:16:05;;;;;;;23.13;4.97;;;4.30;99.90;;;;;;4976465;28;20394;-71
2021/03/22 03:18:31;;;;;;;26.95;6.35;;;4.30;99.90;;;;;;4970005;28;20110;-71
2021/03/22 03:20:58;;;;;;;20.33;5.10;;;4.30;99.90;;;;;;4969887;28;20073;-71
2021/03/22 03:23:25;;;;;;;17.17;4.38;;;4.30;99.90;;;;;;4972977;28;20053;-72
2021/03/22 03:25:51;;;;;;;21.23;5.57;;;4.30;99.90;;;;;;4973918;28;20027;-72
2021/03/22 03:28:16;;;;;;;18.80;4.65;;;4.30;99.90;;;;;;4978582;28;20498;-72
2021/03/22 03:30:42;;;;;;;16.95;5.53;;;4.30;99.90;;;;;;4980175;28;20030;-71
2021/03/22 03:33:11;;;;;;;23.67;5.90;;;4.30;99.90;;;;;;4983196;28;20026;-71
2021/03/22 03:35:40;;;;;;;24.17;5.72;;;4.30;99.90;;;;;;4977527;28;20027;-73
2021/03/22 03:38:07;;;;;;;20.83;4.85;;;4.30;99.90;;;;;;4982147;28;20026;-72
2021/03/22 03:40:47;;;;;;;26.95;6.30;;;4.20;99.90;;;;;;4984145;28;20053;-73
2021/03/22 03:43:14;;;;;;;22.70;5.90;;;4.20;99.90;;;;;;4968215;28;20050;-72
2021/03/22 03:45:42;;;;;;;22.80;5.95;;;4.20;99.90;;;;;;4972148;28;20113;-72
2021/03/22 03:48:10;;;;;;;18.90;5.43;;;4.20;99.90;;;;;;4985886;28;20038;-72
2021/03/22 03:50:36;;;;;;;16.42;5.00;;;4.20;99.90;;;;;;4982097;28;20033;-72
2021/03/22 03:53:02;;;;;;;12.60;4.95;;;4.20;99.90;;;;;;4982946;28;20406;-72
2021/03/22 03:55:30;;;;;;;18.25;4.63;;;4.20;99.90;;;;;;4973047;28;20023;-72
2021/03/22 03:57:57;;;;;;;27.95;5.80;;;4.20;99.90;;;;;;4978959;28;20023;-71
2021/03/22 04:00:29;;;;;;;19.15;4.45;;;4.20;99.90;;;;;;4985612;28;20434;-73
2021/03/22 04:02:55;;;;;;;25.77;5.57;;;4.20;99.90;;;;;;4979563;28;20246;-72
2021/03/22 04:05:26;;;;;;;21.20;5.07;;;4.10;99.90;;;;;;4989284;28;20045;-72
2021/03/22 04:07:51;;;;;;;30.65;7.18;;;4.10;99.90;;;;;;4985637;28;20027;-73
2021/03/22 04:10:17;;;;;;;25.65;4.65;;;4.10;99.90;;;;;;4982617;28;20113;-72
2021/03/22 04:12:44;;;;;;;19.05;4.82;;;4.20;99.90;;;;;;4977785;28;20759;-73
2021/03/22 04:15:14;;;;;;;22.70;5.22;;;4.20;99.90;;;;;;5000472;28;20438;-72
2021/03/22 04:17:41;;;;;;;20.77;3.78;;;4.20;99.90;;;;;;5008378;28;20019;-73
2021/03/22 04:20:08;;;;;;;16.05;4.28;;;4.20;99.90;;;;;;4988265;28;20130;-73
2021/03/22 04:22:33;;;;;;;13.85;3.10;;;4.20;99.90;;;;;;4978786;28;20446;-73
2021/03/22 04:24:59;;;;;;;14.77;3.47;;;4.20;79.50;;;;;;4971725;28;20106;-72
2021/03/22 04:27:25;;;;;;;22.67;7.38;;;4.20;45.00;;;;;;4974163;28;20026;-73
2021/03/22 04:29:51;;;;;;;15.20;3.53;;;4.20;27.70;;;;;;4982617;28;20414;-71
2021/03/22 04:32:16;;;;;;;14.90;2.97;;;4.20;7.20;;;;;;4971325;28;20129;-72
2021/03/22 04:34:42;;;;;;;22.23;5.60;;;4.20;31.10;;;;;;4964356;28;20027;-72
2021/03/22 04:37:08;;;;;;;22.00;5.10;;;4.30;35.60;;;;;;4973134;28;20034;-72
2021/03/22 04:39:34;;;;;;;17.00;3.85;;;4.30;54.30;;;;;;4973898;28;20038;-72
2021/03/22 04:42:00;;;;;;;15.07;3.63;;;4.30;88.90;;;;;;4976095;28;20027;-72
2021/03/22 04:44:26;;;;;;;23.77;4.20;;;4.20;99.90;;;;;;4987524;28;20086;-73
2021/03/22 04:46:51;;;;;;;13.30;3.90;;;4.20;99.90;;;;;;4975169;28;20062;-73
2021/03/22 04:49:17;;;;;;;21.33;4.45;;;4.20;99.90;;;;;;4977839;28;20450;-73
2021/03/22 04:51:43;;;;;;;21.50;4.25;;;4.20;99.90;;;;;;4980116;28;20026;-72
2021/03/22 04:54:08;;;;;;;21.33;4.32;;;4.20;99.90;;;;;;4991690;28;20033;-73
2021/03/22 04:56:34;;;;;;;16.27;4.18;;;4.10;99.90;;;;;;4977124;28;20033;-72
2021/03/22 04:59:00;;;;;;;30.00;7.25;;;4.10;99.90;;;;;;4976037;28;20051;-72
2021/03/22 05:01:25;;;;;;;19.98;5.22;;;4.10;99.90;;;;;;4973725;28;20038;-71
2021/03/22 05:03:51;;;;;;;18.90;3.50;;;4.10;99.90;;;;;;4977637;28;20041;-72
2021/03/22 05:06:17;;;;;;;21.50;4.40;;;4.10;99.90;;;;;;4983486;28;20043;-73
2021/03/22 05:08:42;;;;;;;23.02;3.92;;;4.00;99.90;;;;;;4974998;28;20483;-73
2021/03/22 05:11:09;;;;;;;24.25;6.20;;;4.10;99.90;;;;;;4984270;28;20049;-72
2021/03/22 05:13:34;;;;;;;18.13;3.17;;;4.10;99.90;;;;;;4973933;28;20018;-73
2021/03/22 05:16:00;;;;;;;25.98;6.47;;;4.20;99.90;;;;;;4974607;28;20027;-73
2021/03/22 05:18:30;;;;;;;26.52;5.55;;;4.20;99.90;;;;;;4975348;28;20122;-72
2021/03/22 05:20:59;;;;;;;15.38;3.70;;;4.20;99.90;;;;;;4974704;28;20050;-72
2021/03/22 05:23:27;;;;;;;13.88;3.03;;;4.20;99.90;;;;;;4975015;28;20101;-72
2021/03/22 05:25:54;;;;;;;18.23;3.58;;;4.20;99.90;;;;;;4973222;28;20074;-72
2021/03/22 05:28:21;;;;;;;24.90;5.43;;;4.20;90.00;;;;;;4972734;28;20031;-72
2021/03/22 05:30:47;;;;;;;12.45;3.50;;;4.20;60.30;;;;;;4975528;28;20438;-73
2021/03/22 05:33:15;;;;;;;18.70;4.10;;;4.20;46.70;;;;;;4974247;28;20106;-72
2021/03/22 05:35:45;;;;;;;14.40;3.53;;;4.30;37.60;;;;;;4986266;28;20093;-72
2021/03/22 05:38:11;;;;;;;10.07;3.40;;;4.30;32.90;;;;;;4994684;28;20018;-72
2021/03/22 05:40:44;;;;;;;11.50;3.80;;;4.30;21.50;;;;;;4976852;28;20049;-72
2021/03/22 05:43:22;;;;;;;18.65;3.55;;;4.30;24.50;;;;;;4992644;28;20026;-72
2021/03/22 05:46:15;;;;;;;14.02;3.92;;;4.30;32.80;;;;;;4974565;28;20033;-72
2021/03/22 05:48:41;;;;;;;17.35;4.53;;;4.30;14.80;;;;;;4969125;28;20058;-73
2021/03/22 05:51:41;;;;;;;14.52;4.32;;;4.30;1.00;;;;;;4974346;28;20061;-72
2021/03/22 05:54:38;;;;;;;12.37;3.53;;;4.30;1.00;;;;;;4980272;28;20434;-72
2021/03/22 05:57:18;;;;;;;20.65;4.30;;;4.30;9.00;;;;;;4983792;28;20249;-72
2021/03/22 05:59:46;;;;;;;27.33;3.55;;;4.30;18.30;;;;;;4971809;28;20035;-73
2021/03/22 06:02:23;;;;;;;11.95;3.28;;;4.30;15.50;;;;;;4985076;28;20026;-73
2021/03/22 06:04:54;;;;;;;14.02;4.18;;;4.30;14.30;;;;;;4988129;28;20057;-72
2021/03/22 06:07:22;;;;;;;21.00;4.35;;;4.30;27.80;;;;;;4982984;28;20343;-72
2021/03/22 06:10:09;;;;;;;24.77;4.60;;;4.30;51.20;;;;;;4978820;28;20034;-72
2021/03/22 06:12:46;;;;;;;13.60;3.97;;;4.30;93.20;;;;;;4981743;28;20031;-72
2021/03/22 06:15:23;;;;;;;17.27;5.82;;;4.30;99.90;;;;;;4981089;28;20030;-72
2021/03/22 06:17:49;;;;;;;18.38;4.93;;;4.30;99.90;;;;;;4995783;28;20091;-72
2021/03/22 06:20:30;;;;;;;22.83;5.78;;;4.30;99.90;;;;;;4986833;28;20023;-71
2021/03/22 06:23:00;;;;;;;;;;;4.30;99.90;;;;;;4996097;28;20027;-73
2021/03/22 06:25:31;;;;;;;13.55;4.25;;;4.30;99.90;;;;;;4976670;28;19913;-73
2021/03/22 06:28:21;;;;;;;23.92;5.60;;;4.20;99.90;;;;;;4984056;28;20023;-72
2021/03/22 06:31:08;;;;;;;22.83;7.23;;;4.20;99.90;;;;;;4986819;28;20043;-73
2021/03/22 06:33:48;;;;;;;27.17;6.60;;;4.20;99.90;;;;;;4972975;28;20278;-72
2021/03/22 06:36:17;;;;;;;20.90;6.28;;;4.20;99.90;;;;;;4973671;28;20031;-72
2021/03/22 06:38:50;;;;;;;25.85;6.13;;;4.10;99.90;;;;;;4980392;28;20095;-72
2021/03/22 06:41:31;;;;;;;27.48;5.65;;;4.10;99.90;;;;;;4973843;28;20027;-73
2021/03/22 06:43:59;;;;;;;24.35;4.65;;;4.10;99.90;;;;;;4968494;28;20045;-73
2021/03/22 06:46:27;;;;;;;23.63;6.60;;;4.10;99.90;;;;;;4966557;28;20089;-71
2021/03/22 06:48:57;;;;;;;26.20;5.68;;;4.20;99.90;;;;;;4972877;28;20117;-72
2021/03/22 06:51:23;;;;;;;21.90;4.70;;;4.20;99.90;;;;;;4975577;28;20050;-72
2021/03/22 06:53:52;;;;;;;17.45;4.63;;;4.20;99.90;;;;;;4980357;28;20487;-72
2021/03/22 06:56:35;;;;;;;23.60;4.97;;;4.20;99.90;;;;;;4979195;28;20023;-72
2021/03/22 06:59:13;;;;;;;20.38;4.80;;;4.30;99.90;;;;;;4984202;28;20022;-73
2021/03/22 07:01:44;;;;;;;22.65;4.82;;;4.30;99.90;;;;;;4975888;28;20061;-72
2021/03/22 07:04:21;;;;;;;15.55;4.53;;;4.30;99.90;;;;;;4980271;28;20042;-72
2021/03/22 07:07:12;;;;;;;20.73;3.92;;;4.30;99.90;;;;;;4985739;28;20023;-72
2021/03/22 07:09:45;;;;;;;23.93;4.43;;;4.40;99.90;;;;;;4970908;28;20078;-73
2021/03/22 07:12:34;;;;;;;27.63;5.25;;;4.30;99.90;;;;;;4986289;28;20030;-72
2021/03/22 07:15:23;;;;;;;29.38;7.45;;;4.40;99.90;;;;;;4982753;28;20086;-73
2021/03/22 07:18:11;;;;;;;26.70;7.95;;;4.40;99.90;;;;;;4975869;28;20019;-73
2021/03/22 07:20:37;;;;;;;21.13;6.88;;;4.40;99.90;;;;;;4974236;28;20027;-73
2021/03/22 07:23:24;;;;;;;28.50;9.00;;;4.30;99.90;;;;;;4979128;28;20034;-72
2021/03/22 07:26:21;;;;;;;17.85;6.32;;;4.40;99.90;;;;;;4977564;28;20027;-72
2021/03/22 07:29:01;;;;;;;17.77;6.22;;;4.40;99.90;;;;;;4915699;28;20041;-73
2021/03/22 07:32:07;;;;;;;11.35;4.00;;;4.40;99.90;;;;;;4993101;28;20027;-72
2021/03/22 07:35:08;;;;;;;29.13;5.07;;;4.50;99.90;;;;;;4977401;28;20050;-74
2021/03/22 07:37:49;;;;;;;21.85;4.25;;;4.50;99.90;;;;;;4977161;28;20054;-73
2021/03/22 07:40:31;;;;;;;22.13;4.30;;;4.70;99.90;;;;;;4978149;28;20106;-73
2021/03/22 07:43:12;;;;;;;15.07;5.32;;;4.70;99.90;;;;;;4980038;28;20035;-71
2021/03/22 07:46:04;;;;;;;18.45;4.45;;;4.60;99.90;;;;;;4979242;28;20512;-72
2021/03/22 07:48:50;;;;;;;14.85;4.65;;;4.70;99.90;;;;;;4984334;28;20042;-72
2021/03/22 07:51:34;;;;;;;20.77;6.30;;;4.60;99.90;;;;;;4979672;28;20035;-71
2021/03/22 07:54:26;;;;;;;16.85;4.25;;;4.60;99.90;;;;;;4971177;28;20451;-71
2021/03/22 07:57:22;;;;;;;16.15;4.38;;;4.50;99.90;;;;;;4976677;28;20568;-72
2021/03/22 08:00:03;;;;;;;15.38;3.63;;;4.60;99.90;;;;;;4983805;28;20014;-72
2021/03/22 08:02:29;;;;;;;20.65;3.50;;;4.70;99.90;;;;;;4976490;28;20055;-74
2021/03/22 08:05:21;;;;;;;16.80;3.35;;;4.80;95.60;;;;;;4987154;28;20050;-72
2021/03/22 08:07:54;;;;;;;12.93;2.83;;;4.80;71.50;;;;;;4985903;28;20058;-72
2021/03/22 08:10:40;;;;;;;13.88;3.40;;;4.90;50.20;;;;;;4989519;28;20041;-72
2021/03/22 08:13:35;;;;;;;13.95;2.55;;;5.30;1.00;;;;;;4974401;28;20077;-74
2021/03/22 08:16:13;;;;;;;11.27;3.10;;;5.40;1.00;;;;;;4981451;28;20018;-71
2021/03/22 08:18:45;;;;;;;10.25;2.40;;;5.50;1.00;;;;;;4979514;28;20097;-72
2021/03/22 08:21:20;;;;;;;10.57;2.55;;;5.20;1.00;;;;;;4990598;28;20438;-73
2021/03/22 08:23:49;;;;;;;18.38;4.63;;;5.10;1.00;;;;;;4982679;28;20090;-73
2021/03/22 08:26:34;;;;;;;9.07;2.63;;;5.10;1.00;;;;;;4990570;28;20073;-73
2021/03/22 08:29:17;;;;;;;11.60;2.58;;;5.20;1.00;;;;;;4992538;28;20023;-72
2021/03/22 08:31:56;;;;;;;13.30;2.90;;;5.40;1.00;;;;;;4994638;28;20109;-72
2021/03/22 08:34:51;;;;;;;11.85;3.13;;;5.50;1.00;;;;;;4987872;28;20436;-71
2021/03/22 08:37:28;;;;;;;12.05;3.25;;;5.70;1.00;;;;;;4973998;28;20482;-73
2021/03/22 08:40:06;;;;;;;16.15;3.20;;;5.90;99.90;;;;;;4985350;28;20038;-73
2021/03/22 08:42:40;;;;;;;12.55;2.47;;;5.50;1.00;;;;;;4993699;28;20093;-71
2021/03/22 08:45:16;;;;;;;16.20;3.13;;;5.40;1.00;;;;;;4995547;28;20026;-72
2021/03/22 08:48:03;;;;;;;13.32;3.05;;;5.50;1.00;;;;;;5003657;28;20026;-72
2021/03/22 08:50:33;;;;;;;10.30;2.72;;;5.70;1.00;;;;;;4991475;28;20034;-72
2021/03/22 08:53:10;;;;;;;11.77;2.88;;;5.60;1.00;;;;;;4989818;28;20106;-72
2021/03/22 08:55:39;;;;;;;9.77;2.40;;;5.60;1.00;;;;;;4969375;28;20031;-72
2021/03/22 08:58:14;;;;;;;14.77;3.53;;;5.50;1.00;;;;;;4983012;28;20430;-72
2021/03/22 09:00:49;;;;;;;15.35;3.55;;;5.40;1.00;;;;;;4969570;28;20023;-71
2021/03/22 09:03:14;;;;;;;14.00;3.42;;;5.30;1.00;;;;;;4983740;28;20069;-71
2021/03/22 09:06:02;;;;;;;10.00;2.00;;;5.40;1.00;;;;;;4978979;28;20055;-73
2021/03/22 09:08:27;;;;;;;11.35;2.25;;;5.20;1.00;;;;;;4972646;28;20043;-72
2021/03/22 09:10:54;;;;;;;11.10;2.60;;;5.20;1.00;;;;;;4974493;28;20082;-73
2021/03/22 09:13:25;;;;;;;5.05;2.22;;;5.30;1.00;;;;;;4975065;28;20035;-73
2021/03/22 09:16:01;;;;;;;9.32;2.25;;;5.30;1.00;;;;;;4970049;28;20027;-73
2021/03/22 09:18:26;;;;;;;9.18;2.97;;;5.50;1.00;;;;;;4977439;28;20023;-73
2021/03/22 09:20:55;;;;;;;7.97;2.03;;;5.40;1.00;;;;;;4974764;28;20393;-73
2021/03/22 09:23:29;;;;;;;9.80;2.88;;;5.60;1.00;;;;;;4971541;28;20022;-72
2021/03/22 09:26:01;;;;;;;8.55;1.98;;;5.80;1.00;;;;;;4970282;28;20344;-72
2021/03/22 09:28:26;;;;;;;10.45;5.53;;;5.80;1.00;;;;;;4982408;28;20054;-72
2021/03/22 09:31:01;;;;;;;6.22;2.10;;;5.50;1.00;;;;;;4990845;28;20108;-73
2021/03/22 09:33:59;;;;;;;9.35;2.50;;;5.70;1.00;;;;;;4980104;28;20019;-73
2021/03/22 09:36:30;;;;;;;9.60;2.22;;;5.90;99.90;;;;;;4928462;28;20041;-73
2021/03/22 09:38:59;;;;;;;9.15;2.33;;;5.80;99.90;;;;;;4966165;28;20077;-73
2021/03/22 09:41:56;;;;;;;13.63;2.65;;;5.70;1.00;;;;;;4983664;28;20031;-73
2021/03/22 09:44:25;;;;;;;10.98;1.88;;;5.80;1.00;;;;;;4969807;28;20490;-72
2021/03/22 09:47:14;;;;;;;11.43;1.92;;;6.20;99.90;;;;;;4976895;28;20455;-73
2021/03/22 09:50:00;;;;;;;9.68;2.22;;;5.80;1.00;;;;;;4967903;28;20035;-72
2021/03/22 09:52:35;;;;;;;17.17;3.95;;;6.00;1.00;;;;;;4982246;28;20062;-73
2021/03/22 09:55:02;;;;;;;8.90;1.90;;;6.20;99.90;;;;;;4984790;28;20022;-72
2021/03/22 09:57:41;;;;;;;13.07;2.50;;;6.20;99.90;;;;;;4977190;28;20031;-73
2021/03/22 10:00:25;;;;;;;8.75;3.05;;;6.40;99.90;;;;;;4976464;28;20057;-71
2021/03/22 10:02:59;;;;;;;9.80;3.20;;;6.30;99.90;;;;;;4974479;28;20034;-73
2021/03/22 10:05:43;;;;;;;12.65;2.60;;;6.30;99.90;;;;;;4990093;28;20034;-72
2021/03/22 10:08:11;;;;;;;10.80;3.75;;;6.40;99.90;;;;;;4985445;28;20039;-73
2021/03/22 10:10:40;;;;;;;8.75;3.40;;;6.70;99.90;;;;;;4981847;28;20023;-71
2021/03/22 10:13:15;;;;;;;10.55;2.65;;;6.50;99.90;;;;;;4973207;28;20038;-72
2021/03/22 10:15:59;;;;;;;5.90;2.60;;;6.60;99.90;;;;;;4967922;28;20372;-72
2021/03/22 10:18:37;;;;;;;5.15;2.15;;;6.60;99.90;;;;;;4975622;28;20027;-73
2021/03/22 10:21:35;;;;;;;8.50;1.73;;;6.80;93.80;;;;;;4976734;28;20057;-72
2021/03/22 10:24:10;;;;;;;11.98;3.53;;;6.50;1.00;;;;;;4974155;28;20038;-73
2021/03/22 10:26:40;;;;;;;10.98;1.95;;;6.20;99.90;;;;;;4977733;28;20050;-73
2021/03/22 10:29:31;;;;;;;8.87;2.20;;;6.10;99.90;;;;;;4974676;28;20094;-72
2021/03/22 10:32:13;;;;;;;13.40;4.20;;;5.80;99.90;;;;;;4967005;28;20793;-73
2021/03/22 10:34:41;;;;;;;6.43;2.00;;;5.60;1.00;;;;;;4983654;28;20282;-71
2021/03/22 10:37:11;;;;;;;7.80;1.98;;;5.60;1.00;;;;;;4978133;28;20027;-72
2021/03/22 10:39:46;;;;;;;10.90;2.55;;;5.70;1.00;;;;;;4972882;28;20023;-72
2021/03/22 10:42:29;;;;;;;11.93;3.78;;;5.80;1.00;;;;;;4976459;28;20037;-72
2021/03/22 10:44:56;;;;;;;11.13;2.53;;;5.70;1.00;;;;;;4965270;28;20023;-73
2021/03/22 10:47:28;;;;;;;6.57;2.30;;;5.70;1.00;;;;;;4979757;28;20035;-72
2021/03/22 10:50:06;;;;;;;7.78;2.40;;;5.70;1.00;;;;;;4982951;28;20031;-72
2021/03/22 10:52:31;;;;;;;6.25;2.58;;;5.80;1.00;;;;;;4984453;28;20106;-73
2021/03/22 10:54:58;;;;;;;5.55;2.55;;;5.80;1.00;;;;;;4991564;28;20113;-73
2021/03/22 10:57:33;;;;;;;6.35;2.30;;;5.80;1.00;;;;;;4995887;28;20441;-73
2021/03/22 11:00:29;;;;;;;7.32;2.17;;;5.80;1.00;;;;;;4996459;28;20482;-73
2021/03/22 11:02:57;;;;;;;7.57;2.58;;;5.90;1.00;;;;;;4997301;28;20026;-72
2021/03/22 11:05:31;;;;;;;8.70;3.00;;;5.90;1.00;;;;;;4982921;28;20023;-73
2021/03/22 11:08:02;;;;;;;9.95;2.60;;;6.00;1.00;;;;;;4980113;28;20030;-72
2021/03/22 11:10:28;;;;;;;;;;;6.20;1.00;;;;;;4997699;28;20026;-73
2021/03/22 11:12:54;;;;;;;6.45;2.45;;;6.10;1.00;;;;;;4995890;28;19971;-73
2021/03/22 11:15:25;;;;;;;16.02;3.33;;;6.20;1.00;;;;;;4996036;28;20035;-73
2021/03/22 11:17:51;;;;;;;9.43;2.92;;;6.30;1.00;;;;;;4975249;28;20023;-73
2021/03/22 11:20:18;;;;;;;6.28;2.47;;;6.50;99.90;;;;;;4986587;28;20042;-74
2021/03/22 11:22:47;;;;;;;5.35;2.22;;;6.50;99.90;;;;;;5007621;28;20031;-73
2021/03/22 11:25:31;;;;;;;7.25;2.35;;;6.50;99.90;;;;;;4975985;28;20532;-73
2021/03/22 11:28:04;;;;;;;6.07;2.80;;;6.50;99.90;;;;;;4995025;28;20367;-75
2021/03/22 11:30:49;;;;;;;5.93;2.55;;;6.70;99.90;;;;;;4987303;28;20072;-72
2021/03/22 11:33:18;;;;;;;6.15;2.13;;;6.60;99.90;;;;;;4983850;28;20033;-73
2021/03/22 11:35:45;;;;;;;7.72;2.70;;;6.60;99.90;;;;;;4991850;28;20113;-73
2021/03/22 11:38:25;;;;;;;7.20;3.47;;;6.60;99.90;;;;;;4995829;28;20105;-72
2021/03/22 11:40:51;;;;;;;11.93;2.60;;;6.50;99.90;;;;;;4996693;28;20018;-72
2021/03/22 11:43:25;;;;;;;6.68;2.72;;;6.50;99.90;;;;;;4994275;28;20037;-73
2021/03/22 11:45:51;;;;;;;9.60;2.40;;;6.60;99.90;;;;;;4968383;28;20038;-73
2021/03/22 11:48:19;;;;;;;10.50;2.67;;;6.90;99.90;;;;;;4974478;28;20031;-73
2021/03/22 11:51:08;;;;;;;7.47;2.55;;;7.10;99.90;;;;;;4981410;28;20108;-74
2021/03/22 11:54:01;;;;;;;7.72;2.40;;;7.10;59.50;;;;;;4977642;28;20058;-74
2021/03/22 11:56:28;;;;;;;7.47;2.65;;;7.40;1.00;;;;;;4973517;28;20507;-74
2021/03/22 11:59:19;;;;;;;8.07;2.17;;;7.50;99.90;;;;;;4976866;28;20113;-73
2021/03/22 12:02:00;;;;;;;8.07;2.53;;;7.60;99.90;;;;;;4981154;28;20474;-74
2021/03/22 12:04:26;;;;;;;10.90;2.05;;;7.80;99.90;;;;;;4987804;28;20034;-73
2021/03/22 12:07:12;;;;;;;7.45;2.53;;;7.70;99.90;;;;;;4986254;28;20100;-75
2021/03/22 12:09:42;;;;;;;10.13;2.50;;;8.40;1.00;;;;;;4977767;28;20082;-73
2021/03/22 12:12:13;;;;;;;7.35;2.72;;;8.00;1.00;;;;;;4986295;28;20026;-74
2021/03/22 12:14:38;;;;;;;10.15;3.15;;;7.60;99.90;;;;;;4988308;28;20118;-74
2021/03/22 12:17:13;;;;;;;7.38;1.77;;;7.50;99.90;;;;;;4978614;28;20521;-74
2021/03/22 12:19:40;;;;;;;8.00;2.95;;;7.40;1.00;;;;;;4968214;28;20026;-74
2021/03/22 12:22:12;;;;;;;7.97;3.53;;;7.10;99.90;;;;;;4975782;28;20030;-73
2021/03/22 12:24:38;;;;;;;10.15;4.65;;;7.00;1.00;;;;;;4976460;28;20031;-73
2021/03/22 12:27:08;;;;;;;12.20;7.45;;;7.00;28.40;;;;;;4978463;28;20023;-74
2021/03/22 12:29:35;;;;;;;14.73;6.53;;;7.00;90.80;;;;;;4991075;28;20035;-73
2021/03/22 12:32:00;;;;;;;6.82;4.13;;;6.80;99.90;;;;;;4990927;28;20267;-75
2021/03/22 12:34:26;;;;;;;10.23;3.00;;;6.70;99.90;;;;;;4976854;28;20031;-73
2021/03/22 12:36:52;;;;;;;9.40;3.42;;;6.70;99.90;;;;;;4978527;28;20058;-75
2021/03/22 12:39:27;;;;;;;6.90;2.60;;;6.50;99.90;;;;;;4985866;28;20101;-73
2021/03/22 12:41:59;;;;;;;4.35;2.20;;;6.60;99.90;;;;;;4980711;28;20035;-73
2021/03/22 12:44:25;;;;;;;7.88;2.28;;;6.60;99.90;;;;;;4979389;28;20027;-73
2021/03/22 12:46:50;;;;;;;8.70;2.13;;;6.40;99.90;;;;;;4981968;28;20053;-73
2021/03/22 12:49:18;;;;;;;9.57;2.92;;;6.40;99.90;;;;;;4994979;28;20065;-74
2021/03/22 12:51:44;;;;;;;7.32;2.83;;;6.30;99.90;;;;;;4982356;28;20054;-72
2021/03/22 12:54:10;;;;;;;8.73;3.08;;;6.30;99.90;;;;;;4982968;28;20054;-73
2021/03/22 12:56:36;;;;;;;9.80;2.95;;;6.30;99.90;;;;;;4992232;28;20022;-75
2021/03/22 12:59:02;;;;;;;4.93;2.20;;;6.30;99.90;;;;;;4982304;28;20074;-74
2021/03/22 13:01:28;;;;;;;8.60;2.80;;;6.20;1.00;;;;;;4989212;28;20034;-74
2021/03/22 13:03:54;;;;;;;7.13;2.47;;;6.20;1.00;;;;;;4992224;28;20026;-73
2021/03/22 13:06:22;;;;;;;11.02;3.00;;;6.20;99.90;;;;;;5008723;28;20033;-74
2021/03/22 13:08:47;;;;;;;8.32;3.13;;;6.20;99.90;;;;;;4991915;28;20083;-73
2021/03/22 13:11:15;;;;;;;6.20;3.42;;;6.20;99.90;;;;;;5001649;28;20018;-74
2021/03/22 13:13:41;;;;;;;7.30;3.10;;;6.20;99.90;;;;;;4991741;28;20518;-73
2021/03/22 13:16:07;;;;;;;7.05;3.67;;;6.20;1.00;;;;;;4990642;28;20102;-74
2021/03/22 13:18:35;;;;;;;9.48;3.40;;;6.20;1.00;;;;;;4982892;28;20086;-72
2021/03/22 13:21:11;;;;;;;12.27;3.08;;;6.30;99.90;;;;;;4987272;28;20057;-72
2021/03/22 13:23:38;;;;;;;5.68;2.50;;;6.60;99.90;;;;;;4984102;28;20085;-73